Time;durP1;ratioP1;P1;durP2;ratioP2;P2;SDS_P1;SDS_P2;PMS_P1;PMS_P2;Temp;Humidity;BMP_temperature;BMP_pressure;BME280_temperature;BME280_humidity;BME280_pressure;Samples;Min_cycle;Max_cycle;Signal;HPM_P1;HPM_P2
2022/10/11 00:01:18;;;;;;;5.15;1.60;;;;;;;8.95;100.00;100966.13;5054690;28;20021;-80
2022/10/11 00:03:43;;;;;;;8.18;1.75;;;;;;;9.25;99.66;100956.53;5054544;28;20025;-79
2022/10/11 00:06:17;;;;;;;5.20;1.43;;;;;;;9.15;99.56;100970.31;5053046;28;20025;-79
2022/10/11 00:08:43;;;;;;;7.25;1.90;;;;;;;9.33;99.21;100960.44;5052344;28;20315;-80
2022/10/11 00:11:09;;;;;;;4.63;1.60;;;;;;;9.34;99.10;100964.75;5054523;28;20106;-78
2022/10/11 00:13:35;;;;;;;4.00;1.80;;;;;;;9.25;98.36;100967.41;5052985;28;20048;-79
2022/10/11 00:16:06;;;;;;;8.70;2.37;;;;;;;9.28;99.07;100965.97;5053988;28;20474;-78
2022/10/11 00:18:37;;;;;;;3.67;1.55;;;;;;;9.09;98.50;100968.03;5053881;28;20056;-79
2022/10/11 00:21:05;;;;;;;6.25;1.88;;;;;;;8.90;99.99;100976.25;5052853;28;20116;-80
2022/10/11 00:23:32;;;;;;;14.60;2.75;;;;;;;9.01;100.00;100974.97;5053935;28;20108;-78
2022/10/11 00:26:04;;;;;;;;;;;;;;;9.10;99.21;100978.59;5053086;28;20029;-80
2022/10/11 00:28:31;;;;;;;7.00;1.80;;;;;;;9.07;99.61;100984.63;5052602;28;19916;-79
2022/10/11 00:30:59;;;;;;;6.45;1.92;;;;;;;8.98;100.00;100981.00;5052714;28;20033;-79
2022/10/11 00:33:27;;;;;;;5.90;1.60;;;;;;;9.06;100.00;100983.00;5053837;28;20491;-79
2022/10/11 00:35:53;;;;;;;8.55;2.53;;;;;;;9.08;99.91;100986.25;5053927;28;20056;-78
2022/10/11 00:38:18;;;;;;;9.30;2.10;;;;;;;8.91;100.00;100983.34;5053849;28;20048;-78
2022/10/11 00:40:44;;;;;;;7.40;2.05;;;;;;;8.76;100.00;100986.34;5053659;28;20259;-78
2022/10/11 00:43:23;;;;;;;4.97;2.22;;;;;;;8.73;100.00;100983.13;5053785;28;20078;-78
2022/10/11 00:45:56;;;;;;;11.88;3.20;;;;;;;8.62;100.00;100986.34;5052881;28;20107;-79
2022/10/11 00:48:26;;;;;;;9.65;2.63;;;;;;;8.76;100.00;100986.34;5053479;28;20029;-79
2022/10/11 00:50:54;;;;;;;7.93;2.53;;;;;;;8.74;100.00;100992.09;5053717;28;20033;-78
2022/10/11 00:53:21;;;;;;;6.53;2.72;;;;;;;8.64;100.00;100987.63;5053346;28;20028;-78
2022/10/11 00:55:52;;;;;;;5.43;1.98;;;;;;;8.64;100.00;100990.34;5053120;28;20490;-79
2022/10/11 00:58:20;;;;;;;7.72;2.42;;;;;;;8.54;100.00;100987.00;5053451;28;20098;-79
2022/10/11 01:00:46;;;;;;;7.47;2.28;;;;;;;8.47;100.00;100992.84;5035779;28;20036;-79
2022/10/11 01:03:18;;;;;;;;;;;;;;;8.58;100.00;100994.28;5035437;28;20401;-80
2022/10/11 01:05:45;;;;;;;7.22;2.20;;;;;;;8.51;100.00;100991.13;5053435;28;19916;-79
2022/10/11 01:08:11;;;;;;;10.27;3.38;;;;;;;8.71;100.00;100998.09;5035165;28;20032;-79
2022/10/11 01:10:37;;;;;;;10.85;2.85;;;;;;;8.67;100.00;100997.88;5052357;28;20041;-80
2022/10/11 01:13:24;;;;;;;10.25;3.20;;;;;;;8.51;100.00;101004.69;5052701;28;20516;-79
2022/10/11 01:15:53;;;;;;;;;;;;;;;8.42;100.00;101009.22;5035565;28;20512;-80
2022/10/11 01:18:45;;;;;;;6.43;2.42;;;;;;;8.35;100.00;101008.78;5035483;28;19908;-79
2022/10/11 01:21:43;;;;;;;10.85;2.65;;;;;;;8.48;100.00;101004.50;5052247;28;20020;-80
2022/10/11 01:24:48;;;;;;;11.77;3.35;;;;;;;8.39;100.00;101005.19;5037452;28;20037;-79
2022/10/11 01:27:35;;;;;;;10.23;3.05;;;;;;;8.55;100.00;101008.44;5022666;28;20043;-79
2022/10/11 01:30:13;;;;;;;9.93;3.47;;;;;;;8.61;100.00;101003.72;5033466;28;20057;-80
2022/10/11 01:33:03;;;;;;;13.45;3.38;;;;;;;8.39;100.00;101013.31;5052883;28;20420;-80
2022/10/11 01:35:38;;;;;;;9.60;2.85;;;;;;;8.35;100.00;101014.22;5053158;28;20025;-79
2022/10/11 01:38:06;;;;;;;12.25;3.50;;;;;;;8.28;100.00;101011.06;5052845;28;20500;-80
2022/10/11 01:40:44;;;;;;;7.38;3.60;;;;;;;8.25;100.00;101011.66;5053019;28;20032;-81
2022/10/11 01:43:19;;;;;;;11.48;3.67;;;;;;;8.19;100.00;101007.41;5052587;28;20029;-82
2022/10/11 01:45:54;;;;;;;14.07;3.63;;;;;;;8.17;100.00;101005.00;5018918;28;20127;-80
2022/10/11 01:48:25;;;;;;;13.55;3.85;;;;;;;8.37;100.00;101007.38;5034942;28;20022;-80
2022/10/11 01:51:15;;;;;;;13.13;4.50;;;;;;;8.46;100.00;101015.66;5034705;28;20063;-79
2022/10/11 01:53:59;;;;;;;9.95;4.30;;;;;;;8.38;100.00;101011.72;5052596;28;20048;-80
2022/10/11 01:56:39;;;;;;;11.90;3.67;;;;;;;8.21;100.00;101006.00;5052059;28;20152;-79
2022/10/11 01:59:38;;;;;;;11.23;4.05;;;;;;;8.46;100.00;101007.53;5052342;28;20033;-79
2022/10/11 02:02:06;;;;;;;9.27;3.95;;;;;;;8.34;100.00;101004.47;5052342;28;20111;-79
2022/10/11 02:04:54;;;;;;;12.30;5.05;;;;;;;8.25;100.00;101009.75;5052576;28;20090;-79
2022/10/11 02:07:38;;;;;;;11.27;3.90;;;;;;;8.31;100.00;101007.75;5033987;28;20037;-79
2022/10/11 02:10:30;;;;;;;9.45;3.45;;;;;;;8.18;100.00;101011.22;5033954;28;20486;-79
2022/10/11 02:13:08;;;;;;;12.82;4.03;;;;;;;8.11;100.00;101006.19;5052170;28;20032;-79
2022/10/11 02:15:43;;;;;;;10.27;4.53;;;;;;;8.10;100.00;101018.94;5034291;28;20028;-80
2022/10/11 02:18:22;;;;;;;10.85;5.15;;;;;;;8.06;100.00;101009.78;5052493;28;20503;-80
2022/10/11 02:20:53;;;;;;;13.48;4.80;;;;;;;7.97;100.00;101011.56;5052164;28;20569;-79
2022/10/11 02:23:28;;;;;;;14.50;5.05;;;;;;;7.96;100.00;101018.09;5051669;28;20033;-78
2022/10/11 02:26:05;;;;;;;11.60;4.22;;;;;;;7.96;100.00;101015.38;5017923;28;20025;-80
2022/10/11 02:28:41;;;;;;;9.63;4.47;;;;;;;7.94;100.00;101019.47;5034072;28;20013;-80
2022/10/11 02:31:17;;;;;;;8.18;3.60;;;;;;;8.25;100.00;101015.19;5052869;28;20040;-80
2022/10/11 02:34:02;;;;;;;11.20;4.97;;;;;;;8.03;100.00;101020.41;5056275;28;20049;-80
2022/10/11 02:36:51;;;;;;;10.13;3.70;;;;;;;8.04;100.00;101017.41;5056394;28;20021;-80
2022/10/11 02:39:38;;;;;;;11.45;4.22;;;;;;;8.17;100.00;101021.28;5055728;28;20416;-79
2022/10/11 02:42:08;;;;;;;10.07;4.35;;;;;;;8.19;100.00;101029.09;5056064;28;20035;-79
2022/10/11 02:44:45;;;;;;;11.88;4.50;;;;;;;8.25;100.00;101027.94;5055904;28;20037;-79
2022/10/11 02:47:20;;;;;;;10.68;4.30;;;;;;;8.48;100.00;101027.03;5055882;28;20052;-80
2022/10/11 02:49:51;;;;;;;12.30;4.63;;;;;;;8.32;100.00;101025.63;5055788;28;20045;-79
2022/10/11 02:52:20;;;;;;;18.58;4.65;;;;;;;8.30;100.00;101025.13;5055639;28;20032;-79
2022/10/11 02:54:45;;;;;;;11.20;4.60;;;;;;;8.29;100.00;101028.94;5037757;28;20035;-79
2022/10/11 02:57:15;;;;;;;7.90;3.50;;;;;;;8.15;100.00;101027.00;5055528;28;20507;-79
2022/10/11 02:59:41;;;;;;;8.23;4.05;;;;;;;8.23;100.00;101030.13;5055570;28;20024;-78
2022/10/11 03:02:07;;;;;;;12.55;4.10;;;;;;;8.17;100.00;101031.31;5055478;28;20028;-79
2022/10/11 03:04:35;;;;;;;12.27;4.28;;;;;;;8.27;100.00;101031.16;5055887;28;20021;-79
2022/10/11 03:07:03;;;;;;;11.25;3.88;;;;;;;8.41;100.00;101032.03;5055670;28;20370;-79
2022/10/11 03:09:32;;;;;;;10.18;4.45;;;;;;;8.61;100.00;101041.72;5055839;28;20418;-78
2022/10/11 03:11:57;;;;;;;9.57;4.30;;;;;;;8.20;100.00;101036.16;5037513;28;20037;-80
2022/10/11 03:14:29;;;;;;;8.73;4.20;;;;;;;8.15;100.00;101039.75;5037546;28;20024;-80
2022/10/11 03:16:58;;;;;;;10.57;4.40;;;;;;;8.07;100.00;101041.25;5055776;28;20028;-79
2022/10/11 03:19:27;;;;;;;9.23;3.78;;;;;;;8.01;100.00;101039.69;5035636;28;20033;-79
2022/10/11 03:21:53;;;;;;;9.10;3.95;;;;;;;8.29;100.00;101042.53;5036392;28;20071;-78
2022/10/11 03:24:25;;;;;;;8.20;3.75;;;;;;;7.87;100.00;101046.16;5054988;28;20064;-79
2022/10/11 03:26:53;;;;;;;9.95;4.38;;;;;;;7.70;100.00;101054.78;5054138;28;20481;-79
2022/10/11 03:29:31;;;;;;;8.70;4.55;;;;;;;7.60;100.00;101057.66;5054969;28;20428;-79
2022/10/11 03:31:58;;;;;;;14.15;5.03;;;;;;;7.59;100.00;101058.75;5036722;28;20041;-80
2022/10/11 03:34:26;;;;;;;9.27;5.38;;;;;;;7.64;100.00;101058.69;5036645;28;20033;-79
2022/10/11 03:36:51;;;;;;;16.05;5.40;;;;;;;7.69;100.00;101064.03;5055003;28;20045;-78
2022/10/11 03:39:27;;;;;;;13.07;5.47;;;;;;;7.60;100.00;101068.50;5037046;28;20021;-79
2022/10/11 03:42:14;;;;;;;10.80;5.40;;;;;;;7.54;100.00;101079.38;5055306;28;20308;-79
2022/10/11 03:44:40;;;;;;;12.23;5.60;;;;;;;7.61;100.00;101079.06;5053593;28;20485;-79
2022/10/11 03:47:11;;;;;;;10.68;4.40;;;;;;;7.71;100.00;101062.63;5036925;28;20025;-79
2022/10/11 03:49:45;;;;;;;12.32;5.57;;;;;;;7.68;100.00;101070.56;5054738;28;20029;-79
2022/10/11 03:52:11;;;;;;;9.93;4.93;;;;;;;7.90;100.00;101065.38;5052800;28;20401;-79
2022/10/11 03:54:37;;;;;;;12.87;5.70;;;;;;;7.78;100.00;101070.41;5036615;28;20032;-78
2022/10/11 03:57:02;;;;;;;12.52;4.95;;;;;;;7.77;100.00;101072.31;5045421;28;20048;-80
2022/10/11 03:59:28;;;;;;;12.93;4.82;;;;;;;7.77;100.00;101076.94;5052817;28;20441;-78
2022/10/11 04:01:55;;;;;;;9.70;3.90;;;;;;;7.69;100.00;101077.59;5054229;28;20496;-79
2022/10/11 04:04:24;;;;;;;16.42;4.43;;;;;;;7.67;100.00;101083.28;5052902;28;20406;-79
2022/10/11 04:06:49;;;;;;;12.40;4.43;;;;;;;7.58;100.00;101084.25;5053982;28;20120;-78
2022/10/11 04:09:14;;;;;;;10.17;4.63;;;;;;;7.51;100.00;101093.53;5054401;28;20167;-79
2022/10/11 04:11:40;;;;;;;10.02;4.75;;;;;;;7.52;100.00;101087.00;5053104;28;20035;-79
2022/10/11 04:14:05;;;;;;;10.77;4.35;;;;;;;7.55;100.00;101091.84;5053222;28;20033;-79
2022/10/11 04:16:31;;;;;;;10.20;4.80;;;;;;;7.51;100.00;101088.09;5052658;28;20041;-79
2022/10/11 04:18:56;;;;;;;11.68;3.97;;;;;;;7.69;100.00;101094.66;5054404;28;20339;-80
2022/10/11 04:21:21;;;;;;;11.20;4.40;;;;;;;7.67;100.00;101094.13;5052860;28;20028;-79
2022/10/11 04:23:56;;;;;;;12.30;4.40;;;;;;;7.71;100.00;101106.00;5053997;28;20259;-80
2022/10/11 04:26:21;;;;;;;12.82;4.43;;;;;;;7.61;100.00;101095.31;5053858;28;20028;-79
2022/10/11 04:28:55;;;;;;;8.55;3.67;;;;;;;7.65;100.00;101106.38;5054478;28;20543;-80
2022/10/11 04:31:35;;;;;;;10.55;4.10;;;;;;;7.67;100.00;101110.41;5052147;28;20055;-79
2022/10/11 04:34:01;;;;;;;14.43;4.03;;;;;;;7.60;100.00;101099.13;5053953;28;20024;-80
2022/10/11 04:36:26;;;;;;;13.20;4.27;;;;;;;7.86;100.00;101102.28;5053782;28;20098;-80
2022/10/11 04:38:54;;;;;;;8.23;4.10;;;;;;;7.72;100.00;101107.63;5054129;28;20262;-78
2022/10/11 04:41:20;;;;;;;8.52;3.72;;;;;;;7.71;100.00;101107.91;5053712;28;20032;-80
2022/10/11 04:43:46;;;;;;;8.52;4.20;;;;;;;7.72;100.00;101107.63;5053888;28;20020;-79
2022/10/11 04:46:14;;;;;;;11.82;4.72;;;;;;;7.80;99.91;101109.69;5052190;28;20033;-79
2022/10/11 04:48:48;;;;;;;11.75;5.38;;;;;;;7.97;100.00;101109.19;5052384;28;20155;-80
2022/10/11 04:51:17;;;;;;;8.98;4.28;;;;;;;7.79;99.79;101123.53;5052145;28;20524;-80
2022/10/11 04:53:45;;;;;;;8.35;4.03;;;;;;;7.65;100.00;101115.31;5052167;28;20040;-80
2022/10/11 04:56:13;;;;;;;11.23;4.43;;;;;;;7.66;100.00;101124.25;5052260;28;20079;-79
2022/10/11 04:58:40;;;;;;;10.40;3.63;;;;;;;7.75;100.00;101114.38;5035411;28;20025;-79
2022/10/11 05:01:06;;;;;;;;;;;;;;;7.83;100.00;101116.44;5053960;28;20021;-80
2022/10/11 05:03:31;;;;;;;11.90;4.72;;;;;;;7.82;100.00;101117.53;5053292;28;20003;-79
2022/10/11 05:05:57;;;;;;;11.10;3.97;;;;;;;7.67;100.00;101123.16;5035378;28;20060;-80
2022/10/11 05:08:26;;;;;;;9.75;3.97;;;;;;;7.64;100.00;101127.25;5035331;28;20551;-80
2022/10/11 05:10:59;;;;;;;10.23;3.88;;;;;;;7.64;100.00;101129.97;5053352;28;20029;-79
2022/10/11 05:13:26;;;;;;;12.95;5.10;;;;;;;7.99;98.50;101125.97;5034883;28;20039;-80
2022/10/11 05:15:52;;;;;;;10.30;4.55;;;;;;;7.99;97.10;101128.69;5034069;28;20116;-79
2022/10/11 05:18:20;;;;;;;15.88;3.92;;;;;;;8.00;97.13;101124.88;5034849;28;20099;-79
2022/10/11 05:20:57;;;;;;;14.00;4.15;;;;;;;7.84;96.90;101137.03;5052729;28;20055;-79
2022/10/11 05:23:24;;;;;;;10.85;3.78;;;;;;;7.59;98.05;101134.66;5019733;28;20048;-80
2022/10/11 05:25:52;;;;;;;12.55;4.38;;;;;;;7.43;100.00;101129.41;5052576;28;20116;-80
2022/10/11 05:28:18;;;;;;;11.25;3.85;;;;;;;7.65;97.90;101133.47;5048243;28;20052;-79
2022/10/11 05:30:44;;;;;;;11.00;4.40;;;;;;;7.66;98.24;101133.19;5052784;28;20032;-79
2022/10/11 05:33:12;;;;;;;8.38;4.03;;;;;;;7.90;96.40;101141.31;5034911;28;20032;-79
2022/10/11 05:35:38;;;;;;;11.15;4.35;;;;;;;7.83;95.39;101135.41;5034118;28;20044;-79
2022/10/11 05:38:03;;;;;;;10.38;3.78;;;;;;;7.66;95.77;101151.34;5034769;28;20016;-79
2022/10/11 05:40:32;;;;;;;8.77;3.30;;;;;;;7.51;96.34;101144.22;5034456;28;20033;-79
2022/10/11 05:42:57;;;;;;;12.82;3.70;;;;;;;7.50;97.12;101142.59;5052343;28;20418;-79
2022/10/11 05:45:23;;;;;;;9.30;3.80;;;;;;;7.29;97.38;101146.63;5034474;28;20055;-79
2022/10/11 05:47:52;;;;;;;;;;;;;;;7.37;97.64;101146.81;5050907;28;20028;-80
2022/10/11 05:50:37;;;;;;;10.20;3.55;;;;;;;7.37;97.80;101146.00;5052599;28;19912;-79
2022/10/11 05:53:05;;;;;;;15.18;4.50;;;;;;;7.44;97.44;101155.41;5052403;28;20021;-79
2022/10/11 05:55:39;;;;;;;8.70;4.18;;;;;;;7.43;99.16;101153.81;5033134;28;20481;-80
2022/10/11 05:58:22;;;;;;;22.92;8.30;;;;;;;7.41;99.27;101166.03;5049694;28;20459;-80
2022/10/11 06:00:50;;;;;;;22.05;6.95;;;;;;;7.58;97.08;101160.94;5052107;28;20044;-79
2022/10/11 06:03:19;;;;;;;18.40;6.63;;;;;;;7.57;96.75;101166.66;5034445;28;20029;-79
2022/10/11 06:05:47;;;;;;;11.27;4.63;;;;;;;7.24;96.47;101174.59;5051752;28;20056;-79
2022/10/11 06:08:16;;;;;;;13.02;4.28;;;;;;;7.14;97.69;101169.28;5051917;28;20017;-80
2022/10/11 06:10:43;;;;;;;10.57;4.60;;;;;;;7.16;97.86;101169.78;5052302;28;20024;-79
2022/10/11 06:13:12;;;;;;;12.25;5.53;;;;;;;7.14;100.00;101171.97;5033671;28;20041;-80
2022/10/11 06:15:38;;;;;;;10.75;4.78;;;;;;;6.99;98.85;101164.00;5051416;28;20385;-79
2022/10/11 06:18:04;;;;;;;;;;;;;;;7.11;100.00;101176.06;5034434;28;20426;-80
2022/10/11 06:20:29;;;;;;;10.27;4.20;;;;;;;7.31;100.00;101172.34;5052052;28;20007;-79
2022/10/11 06:22:57;;;;;;;11.53;4.87;;;;;;;7.19;99.96;101175.44;5051749;28;20070;-79
2022/10/11 06:25:24;;;;;;;12.07;4.68;;;;;;;7.30;99.42;101176.16;5051880;28;20339;-79
2022/10/11 06:27:50;;;;;;;12.85;4.95;;;;;;;7.35;97.74;101181.50;5051777;28;20108;-80
2022/10/11 06:30:15;;;;;;;12.97;5.23;;;;;;;7.43;97.54;101189.03;5033665;28;20112;-79
2022/10/11 06:32:40;;;;;;;15.40;5.93;;;;;;;7.51;97.56;101188.38;5051600;28;20108;-80
2022/10/11 06:35:06;;;;;;;9.37;3.90;;;;;;;7.41;97.35;101191.22;5033954;28;20744;-80
2022/10/11 06:37:32;;;;;;;11.45;4.38;;;;;;;7.40;98.57;101192.31;5034099;28;20025;-79
2022/10/11 06:39:57;;;;;;;13.52;3.78;;;;;;;7.42;98.77;101197.44;5033772;28;20099;-79
2022/10/11 06:42:22;;;;;;;9.80;4.43;;;;;;;7.48;98.83;101197.09;5051352;28;20500;-81
2022/10/11 06:44:48;;;;;;;16.33;4.37;;;;;;;7.48;98.83;101202.50;5051368;28;20033;-80
2022/10/11 06:47:13;;;;;;;9.43;4.10;;;;;;;7.54;98.87;101200.53;5051639;28;20264;-81
2022/10/11 06:49:38;;;;;;;8.97;3.93;;;;;;;7.61;98.89;101201.03;5033523;28;20053;-81
2022/10/11 06:52:04;;;;;;;12.17;4.20;;;;;;;7.67;99.06;101201.75;5051642;28;20111;-78
2022/10/11 06:54:29;;;;;;;10.82;4.43;;;;;;;7.84;100.00;101212.94;5033912;28;20286;-78
2022/10/11 06:56:54;;;;;;;13.13;4.33;;;;;;;7.94;99.52;101203.91;5038876;28;20171;-80
2022/10/11 06:59:20;;;;;;;13.73;5.00;;;;;;;8.16;99.52;101209.56;5051644;28;20112;-78
2022/10/11 07:01:46;;;;;;;11.98;4.93;;;;;;;8.21;98.28;101223.06;5051439;28;20263;-78
2022/10/11 07:04:12;;;;;;;15.18;4.78;;;;;;;8.46;97.57;101219.22;5051353;28;20055;-79
2022/10/11 07:06:39;;;;;;;14.13;5.73;;;;;;;8.53;97.36;101229.72;5051352;28;20481;-78
2022/10/11 07:09:05;;;;;;;13.90;4.88;;;;;;;8.56;96.37;101231.81;5051531;28;20040;-78
2022/10/11 07:11:31;;;;;;;;;;;;;;;8.92;96.20;101221.25;5050389;28;20033;-80
2022/10/11 07:14:00;;;;;;;15.27;4.57;;;;;;;9.00;95.93;101234.13;5050040;28;19984;-79
2022/10/11 07:16:26;;;;;;;14.23;5.28;;;;;;;8.93;96.18;101231.00;5049544;28;20025;-79
2022/10/11 07:18:54;;;;;;;13.63;4.40;;;;;;;8.90;96.43;101228.88;5053238;28;20116;-79
2022/10/11 07:21:21;;;;;;;12.95;4.38;;;;;;;8.98;95.96;101228.19;5055448;28;20152;-79
2022/10/11 07:23:46;;;;;;;11.23;4.57;;;;;;;9.10;96.19;101239.41;5055353;28;20025;-79
2022/10/11 07:26:13;;;;;;;10.45;4.35;;;;;;;9.32;94.41;101236.84;5055044;28;20501;-80
2022/10/11 07:28:39;;;;;;;10.77;4.03;;;;;;;9.35;94.32;101240.88;5054764;28;20078;-78
2022/10/11 07:31:16;;;;;;;11.60;4.70;;;;;;;9.46;94.85;101244.22;5055059;28;20025;-78
2022/10/11 07:33:41;;;;;;;8.23;4.60;;;;;;;9.75;92.63;101244.78;5055692;28;20025;-79
2022/10/11 07:36:11;;;;;;;10.55;4.03;;;;;;;9.81;92.26;101249.00;5054289;28;20465;-79
2022/10/11 07:38:41;;;;;;;8.75;4.07;;;;;;;9.81;91.99;101243.56;5054098;28;20039;-79
2022/10/11 07:41:07;;;;;;;10.23;3.47;;;;;;;9.85;92.00;101250.00;5054366;28;20024;-79
2022/10/11 07:43:35;;;;;;;19.88;5.18;;;;;;;9.96;91.22;101245.19;5053156;28;20024;-79
2022/10/11 07:46:02;;;;;;;13.82;4.70;;;;;;;9.91;90.86;101242.56;5053263;28;20033;-78
2022/10/11 07:48:32;;;;;;;12.50;4.15;;;;;;;9.89;91.75;101245.56;5053045;28;20440;-78
2022/10/11 07:51:07;;;;;;;11.80;3.78;;;;;;;9.91;91.46;101253.44;5054821;28;20024;-79
2022/10/11 07:53:51;;;;;;;9.70;3.60;;;;;;;9.91;90.78;101245.28;5054290;28;20021;-79
2022/10/11 07:56:22;;;;;;;9.23;3.95;;;;;;;10.01;90.13;101252.41;5053827;28;20055;-79
2022/10/11 07:58:58;;;;;;;8.93;4.05;;;;;;;10.11;89.60;101252.22;5054738;28;20017;-78
2022/10/11 08:01:25;;;;;;;18.15;5.63;;;;;;;10.11;88.90;101252.22;5054073;28;20025;-78
2022/10/11 08:03:50;;;;;;;12.52;4.13;;;;;;;10.14;88.48;101252.41;5054084;28;20060;-79
2022/10/11 08:06:21;;;;;;;9.98;3.00;;;;;;;10.21;87.81;101254.75;5054016;28;20110;-78
2022/10/11 08:08:48;;;;;;;6.95;2.47;;;;;;;10.25;86.73;101253.06;5053559;28;20036;-79
2022/10/11 08:11:28;;;;;;;10.20;3.17;;;;;;;10.23;86.42;101255.25;5036266;28;20495;-79
2022/10/11 08:13:54;;;;;;;10.10;3.38;;;;;;;10.76;84.89;101257.38;5053504;28;20165;-79
2022/10/11 08:16:20;;;;;;;17.33;2.83;;;;;;;10.69;84.21;101256.97;5035644;28;20062;-85
2022/10/11 08:18:48;;;;;;;11.55;3.40;;;;;;;10.67;85.22;101256.47;5036552;28;20036;-82
2022/10/11 08:21:15;;;;;;;5.68;2.42;;;;;;;10.66;85.33;101255.66;5035431;28;20024;-82
2022/10/11 08:23:41;;;;;;;4.95;2.13;;;;;;;10.69;84.45;101257.78;5054153;28;20021;-83
2022/10/11 08:26:08;;;;;;;8.05;2.22;;;;;;;10.76;83.88;101258.16;5035734;28;20512;-84
2022/10/11 08:28:35;;;;;;;10.25;2.60;;;;;;;10.80;84.22;101258.34;5035384;28;20405;-84
2022/10/11 08:31:00;;;;;;;6.80;2.38;;;;;;;11.04;81.98;101269.75;5036085;28;20028;-83
2022/10/11 08:33:26;;;;;;;7.82;2.35;;;;;;;11.27;81.04;101262.38;5053389;28;20021;-82
2022/10/11 08:35:52;;;;;;;6.85;1.90;;;;;;;11.39;81.02;101264.53;5054032;28;20063;-83
2022/10/11 08:38:19;;;;;;;5.85;1.75;;;;;;;11.67;78.25;101259.69;5054775;28;20039;-83
2022/10/11 08:40:48;;;;;;;;;;;;;;;11.77;75.63;101258.63;5055310;28;20036;-83
2022/10/11 08:43:38;;;;;;;6.70;2.20;;;;;;;11.61;76.32;101269.97;5054478;28;20415;-80
2022/10/11 08:46:08;;;;;;;4.93;1.95;;;;;;;11.60;77.02;101264.81;5054401;28;20035;-82
2022/10/11 08:48:37;;;;;;;8.07;1.98;;;;;;;11.58;76.26;101265.09;5035498;28;20029;-82
2022/10/11 08:51:13;;;;;;;5.72;1.23;;;;;;;11.59;75.20;101264.00;5035845;28;20445;-82
2022/10/11 08:53:55;;;;;;;6.35;1.33;;;;;;;11.66;73.93;101264.34;5053472;28;20557;-82
2022/10/11 08:56:22;;;;;;;6.65;1.17;;;;;;;11.76;73.74;101271.47;5053713;28;20495;-84
2022/10/11 08:59:15;;;;;;;4.03;1.67;;;;;;;11.73;73.46;101270.16;5053150;28;20127;-84
2022/10/11 09:01:49;;;;;;;4.55;1.35;;;;;;;11.80;73.01;101269.75;5035273;28;20154;-83
2022/10/11 09:04:17;;;;;;;5.43;1.50;;;;;;;11.84;73.03;101264.47;5034610;28;20025;-83
2022/10/11 09:06:56;;;;;;;8.65;1.67;;;;;;;11.88;72.77;101268.97;5034366;28;20033;-84
2022/10/11 09:09:56;;;;;;;5.05;1.73;;;;;;;11.94;73.51;101265.00;5034396;28;20115;-84
2022/10/11 09:12:42;;;;;;;7.38;1.80;;;;;;;12.09;75.03;101273.84;5034587;28;20457;-83
2022/10/11 09:15:19;;;;;;;3.80;1.10;;;;;;;12.33;72.86;101277.78;5052859;28;20032;-84
2022/10/11 09:18:21;;;;;;;5.38;1.33;;;;;;;12.54;71.91;101280.69;5034960;28;20118;-85
2022/10/11 09:20:56;;;;;;;5.55;1.42;;;;;;;12.42;72.08;101283.25;5034813;28;20093;-84
2022/10/11 09:23:43;;;;;;;4.35;1.30;;;;;;;12.28;73.16;101282.59;5052620;28;20044;-82
2022/10/11 09:26:36;;;;;;;6.85;1.65;;;;;;;12.40;74.05;101277.31;5034945;28;20031;-83
2022/10/11 09:29:26;;;;;;;7.38;1.45;;;;;;;12.12;71.46;101270.50;5046186;28;20033;-83
2022/10/11 09:31:54;;;;;;;5.47;1.30;;;;;;;12.11;71.52;101275.16;5054527;28;20062;-84
2022/10/11 09:34:24;;;;;;;4.47;1.00;;;;;;;12.35;71.20;101275.53;5054220;28;20017;-84
2022/10/11 09:37:04;;;;;;;4.22;0.73;;;;;;;12.46;70.59;101276.03;5054114;28;20025;-84
2022/10/11 09:39:35;;;;;;;4.32;0.70;;;;;;;12.66;69.60;101269.16;5052674;28;20519;-82
2022/10/11 09:42:09;;;;;;;5.63;1.00;;;;;;;12.88;68.61;101282.66;5053182;28;20041;-84
2022/10/11 09:44:37;;;;;;;5.07;0.95;;;;;;;12.60;69.22;101273.19;5035902;28;20029;-85
2022/10/11 09:47:04;;;;;;;5.18;0.85;;;;;;;12.75;68.09;101267.22;5019058;28;20029;-84
2022/10/11 09:49:43;;;;;;;6.90;0.95;;;;;;;12.75;66.80;101269.94;5034629;28;20386;-85
2022/10/11 09:52:17;;;;;;;2.33;0.60;;;;;;;12.39;68.96;101270.22;5052478;28;20033;-85
2022/10/11 09:54:46;;;;;;;2.33;0.82;;;;;;;12.29;68.84;101271.34;5052658;28;20024;-85
2022/10/11 09:57:21;;;;;;;4.40;1.45;;;;;;;12.28;68.87;101271.69;5042503;28;20049;-87
2022/10/11 10:00:04;;;;;;;6.93;2.28;;;;;;;12.20;68.84;101273.25;5052703;28;20105;-84
2022/10/11 10:02:40;;;;;;;3.85;1.00;;;;;;;12.68;66.29;101266.09;5051395;28;20056;-88
2022/10/11 10:05:05;;;;;;;8.85;2.38;;;;;;;12.81;65.50;101281.53;5053153;28;20041;-85
2022/10/11 10:07:34;;;;;;;5.73;0.90;;;;;;;12.36;64.58;101281.81;5052967;28;20029;-86
2022/10/11 10:10:31;;;;;;;9.63;1.42;;;;;;;12.59;66.66;101282.47;5051579;28;20030;-85
2022/10/11 10:12:59;;;;;;;3.53;0.93;;;;;;;12.99;64.01;101280.41;5051308;28;20496;-87
2022/10/11 10:15:31;;;;;;;5.03;0.80;;;;;;;13.47;62.17;101282.94;5034706;28;20052;-84
2022/10/11 10:17:57;;;;;;;12.27;1.45;;;;;;;13.19;61.60;101281.69;5049467;28;20025;-84
2022/10/11 10:20:24;;;;;;;;;;;;;;;13.03;59.99;101277.81;5053012;28;20032;-87
2022/10/11 10:22:50;;;;;;;8.40;1.65;;;;;;;12.91;60.51;101287.47;5051091;28;19992;-86
2022/10/11 10:25:37;;;;;;;4.50;0.82;;;;;;;13.18;60.98;101280.09;5051713;28;20048;-82
2022/10/11 10:28:23;;;;;;;4.80;0.88;;;;;;;13.12;59.82;101279.44;5052489;28;20052;-85
2022/10/11 10:30:55;;;;;;;3.10;0.75;;;;;;;13.67;57.65;101280.63;5051728;28;20043;-84
2022/10/11 10:33:31;;;;;;;4.20;0.90;;;;;;;13.79;58.06;101278.03;5052924;28;20079;-84
2022/10/11 10:36:05;;;;;;;3.92;1.05;;;;;;;13.63;57.56;101279.69;5051852;28;20112;-84
2022/10/11 10:38:56;;;;;;;5.97;1.55;;;;;;;13.42;60.10;101276.81;5050792;28;20033;-84
2022/10/11 10:41:21;;;;;;;7.55;1.70;;;;;;;13.28;60.53;101285.25;5051297;28;20041;-83
2022/10/11 10:43:56;;;;;;;3.13;0.90;;;;;;;13.50;59.62;101270.53;5052671;28;20045;-82
2022/10/11 10:46:48;;;;;;;2.38;0.85;;;;;;;13.86;59.65;101275.56;5052493;28;20113;-84
2022/10/11 10:49:24;;;;;;;5.75;1.23;;;;;;;13.66;60.54;101268.09;5052611;28;20021;-84
2022/10/11 10:52:26;;;;;;;6.47;1.42;;;;;;;14.19;57.74;101264.78;5051853;28;20465;-80
2022/10/11 10:55:07;;;;;;;6.03;1.80;;;;;;;14.19;57.85;101259.28;5055199;28;20150;-79
2022/10/11 10:57:46;;;;;;;5.40;1.27;;;;;;;13.88;59.37;101267.81;5055259;28;20152;-79
2022/10/11 11:00:15;;;;;;;5.43;0.98;;;;;;;13.67;59.12;101262.28;5055811;28;20024;-78
2022/10/11 11:03:01;;;;;;;5.07;1.15;;;;;;;13.96;58.68;101261.53;5055493;28;20035;-77
2022/10/11 11:05:54;;;;;;;4.45;1.25;;;;;;;14.33;57.69;101264.53;5037323;28;20033;-77
2022/10/11 11:08:34;;;;;;;8.23;1.52;;;;;;;14.63;57.22;101259.84;5055334;28;20061;-78
2022/10/11 11:11:37;;;;;;;5.85;1.77;;;;;;;14.97;56.25;101265.06;5036979;28;20028;-78
2022/10/11 11:14:24;;;;;;;3.75;1.17;;;;;;;15.09;55.45;101260.72;5054896;28;20078;-78
2022/10/11 11:16:49;;;;;;;5.78;2.25;;;;;;;14.96;55.34;101260.69;5036871;28;20082;-78
2022/10/11 11:19:14;;;;;;;;;;;;;;;14.53;56.12;101263.78;5037493;28;20473;-79
2022/10/11 11:22:29;;;;;;;5.47;2.23;;;;;;;14.77;54.17;101262.31;5055085;28;20369;-78
2022/10/11 11:25:02;;;;;;;7.35;1.88;;;;;;;14.35;55.27;101262.25;5054974;28;20267;-78
2022/10/11 11:27:36;;;;;;;5.82;1.45;;;;;;;14.27;55.40;101261.16;5054907;28;20064;-77
2022/10/11 11:30:10;;;;;;;4.07;1.48;;;;;;;14.57;54.10;101252.94;5054736;28;20024;-78
2022/10/11 11:32:54;;;;;;;5.45;1.80;;;;;;;14.75;53.81;101255.22;5033076;28;20146;-78
2022/10/11 11:35:51;;;;;;;10.95;2.53;;;;;;;14.79;53.35;101255.38;5036708;28;20067;-79
2022/10/11 11:38:35;;;;;;;6.45;1.60;;;;;;;14.86;53.88;101250.13;5055145;28;20029;-78
2022/10/11 11:41:04;;;;;;;7.43;2.10;;;;;;;15.10;54.21;101243.94;5054933;28;20033;-79
2022/10/11 11:43:33;;;;;;;4.63;2.00;;;;;;;14.55;55.13;101239.56;5054687;28;20513;-79
2022/10/11 11:46:08;;;;;;;3.45;1.35;;;;;;;14.81;54.76;101241.31;5054869;28;20032;-77
2022/10/11 11:48:34;;;;;;;6.60;2.38;;;;;;;14.44;55.63;101241.09;5036638;28;20040;-79
2022/10/11 11:51:06;;;;;;;2.67;1.00;;;;;;;14.03;56.72;101239.09;5054629;28;20029;-78